Time;durP1;ratioP1;P1;durP2;ratioP2;P2;SDS_P1;SDS_P2;PMS_P1;PMS_P2;Temp;Humidity;BMP_temperature;BMP_pressure;BME280_temperature;BME280_humidity;BME280_pressure;Samples;Min_cycle;Max_cycle;Signal;HPM_P1;HPM_P2
2023/12/04 00:01:14;;;;;;;18.75;8.32;;;;;;;;;;5116702;27;20406;-72
2023/12/04 00:03:42;;;;;;;19.52;8.32;;;;;;;;;;5115748;27;20039;-71
2023/12/04 00:06:11;;;;;;;16.25;8.32;;;;;;;;;;5124786;27;20059;-71
2023/12/04 00:08:37;;;;;;;14.90;7.53;;;;;;;;;;5115885;27;20047;-71
2023/12/04 00:11:04;;;;;;;13.65;7.35;;;;;;;;;;5124399;27;20059;-72
2023/12/04 00:13:31;;;;;;;16.60;8.50;;;;;;;;;;5112146;28;20487;-70
2023/12/04 00:15:58;;;;;;;17.80;8.18;;;;;;;;;;5122725;27;20046;-71
2023/12/04 00:18:24;;;;;;;22.95;8.70;;;;;;;;;;5113448;27;20043;-71
2023/12/04 00:20:52;;;;;;;21.50;8.63;;;;;;;;;;5114645;27;20047;-71
2023/12/04 00:23:19;;;;;;;17.65;8.05;;;;;;;;;;5114236;27;20043;-72
2023/12/04 00:25:45;;;;;;;17.23;8.43;;;;;;;;;;5114554;28;20047;-71
2023/12/04 00:28:22;;;;;;;17.63;8.10;;;;;;;;;;5114435;28;20043;-72
2023/12/04 00:30:49;;;;;;;19.05;8.80;;;;;;;;;;5116180;28;20436;-71
2023/12/04 00:33:16;;;;;;;18.10;8.50;;;;;;;;;;5117682;28;20047;-71
2023/12/04 00:35:42;;;;;;;19.00;8.23;;;;;;;;;;5111726;28;20400;-72
2023/12/04 00:38:10;;;;;;;17.67;7.72;;;;;;;;;;5115639;28;20051;-72
2023/12/04 00:40:37;;;;;;;20.13;8.13;;;;;;;;;;5118116;27;20040;-71
2023/12/04 00:43:03;;;;;;;17.33;7.78;;;;;;;;;;5120224;27;20046;-71
2023/12/04 00:45:30;;;;;;;17.98;7.65;;;;;;;;;;5118722;27;20050;-71
2023/12/04 00:47:56;;;;;;;17.85;7.28;;;;;;;;;;5115345;28;20050;-72
2023/12/04 00:50:23;;;;;;;14.13;6.85;;;;;;;;;;5115155;28;20047;-72
2023/12/04 00:52:49;;;;;;;14.10;7.30;;;;;;;;;;5115339;28;20130;-70
2023/12/04 00:55:18;;;;;;;13.38;7.03;;;;;;;;;;5122739;27;20054;-71
2023/12/04 00:57:45;;;;;;;15.18;6.10;;;;;;;;;;5115576;28;20565;-72
2023/12/04 01:00:13;;;;;;;14.20;6.35;;;;;;;;;;5115036;28;20040;-71
2023/12/04 01:02:39;;;;;;;15.27;6.70;;;;;;;;;;5118051;27;20579;-71
2023/12/04 01:05:06;;;;;;;15.30;6.60;;;;;;;;;;5117625;27;20043;-71
2023/12/04 01:07:33;;;;;;;12.07;6.53;;;;;;;;;;5115414;28;20550;-72
2023/12/04 01:09:59;;;;;;;14.23;5.75;;;;;;;;;;5124754;27;20640;-70
2023/12/04 01:12:27;;;;;;;16.15;6.65;;;;;;;;;;5117889;27;20510;-71
2023/12/04 01:14:54;;;;;;;13.00;6.07;;;;;;;;;;5117032;27;20072;-71
2023/12/04 01:17:20;;;;;;;14.95;6.20;;;;;;;;;;5120787;27;20406;-71
2023/12/04 01:19:47;;;;;;;13.35;6.15;;;;;;;;;;5117227;27;20039;-70
2023/12/04 01:22:14;;;;;;;10.82;5.32;;;;;;;;;;5124245;27;20043;-71
2023/12/04 01:24:40;;;;;;;10.20;5.10;;;;;;;;;;5117247;27;20044;-71
2023/12/04 01:27:07;;;;;;;10.05;5.53;;;;;;;;;;5112453;28;20491;-71
2023/12/04 01:29:35;;;;;;;11.70;5.60;;;;;;;;;;5124319;27;20039;-71
2023/12/04 01:32:01;;;;;;;12.63;5.47;;;;;;;;;;5121777;27;20051;-71
2023/12/04 01:34:28;;;;;;;10.40;5.28;;;;;;;;;;5114785;27;20040;-72
2023/12/04 01:36:54;;;;;;;11.35;5.22;;;;;;;;;;5122581;27;20047;-71
2023/12/04 01:39:21;;;;;;;9.00;5.13;;;;;;;;;;5117353;27;20043;-71
2023/12/04 01:41:47;;;;;;;9.80;5.28;;;;;;;;;;5117801;27;20040;-72
2023/12/04 01:44:14;;;;;;;11.10;4.90;;;;;;;;;;5116281;27;20047;-71
2023/12/04 01:46:42;;;;;;;13.07;6.00;;;;;;;;;;5116983;27;20063;-71
2023/12/04 01:49:09;;;;;;;11.60;5.60;;;;;;;;;;5114458;28;20051;-72
2023/12/04 01:51:36;;;;;;;11.32;5.82;;;;;;;;;;5114623;28;20044;-72
2023/12/04 01:54:05;;;;;;;12.18;5.60;;;;;;;;;;5125901;27;20052;-72
2023/12/04 01:56:32;;;;;;;10.05;5.40;;;;;;;;;;5120408;27;20396;-71
2023/12/04 01:58:59;;;;;;;13.13;5.93;;;;;;;;;;5116921;27;20407;-72
2023/12/04 02:01:27;;;;;;;10.38;5.75;;;;;;;;;;5114639;27;20142;-72
2023/12/04 02:03:56;;;;;;;13.40;6.45;;;;;;;;;;5117773;27;20130;-72
2023/12/04 02:06:22;;;;;;;13.35;6.13;;;;;;;;;;5114488;27;20450;-71
2023/12/04 02:08:49;;;;;;;14.23;5.82;;;;;;;;;;5116338;27;20039;-71
2023/12/04 02:11:16;;;;;;;13.38;6.30;;;;;;;;;;5114047;27;20048;-71
2023/12/04 02:13:42;;;;;;;14.27;6.60;;;;;;;;;;5119858;27;20047;-71
2023/12/04 02:16:13;;;;;;;12.20;6.15;;;;;;;;;;5118593;27;20401;-72
2023/12/04 02:18:41;;;;;;;12.10;6.38;;;;;;;;;;5113865;28;20058;-71
2023/12/04 02:21:09;;;;;;;12.98;6.15;;;;;;;;;;5113595;28;20040;-71
2023/12/04 02:23:36;;;;;;;11.75;5.82;;;;;;;;;;5113964;28;20047;-71
2023/12/04 02:26:10;;;;;;;12.25;6.22;;;;;;;;;;5113567;28;20050;-71
2023/12/04 02:28:39;;;;;;;11.32;5.25;;;;;;;;;;5113647;27;20422;-71
2023/12/04 02:31:07;;;;;;;8.45;4.55;;;;;;;;;;5116105;27;20050;-71
2023/12/04 02:33:35;;;;;;;11.02;5.40;;;;;;;;;;5113861;28;20127;-71
2023/12/04 02:36:05;;;;;;;10.45;5.60;;;;;;;;;;5116213;27;20058;-71
2023/12/04 02:38:31;;;;;;;11.38;5.78;;;;;;;;;;5116250;27;20047;-71
2023/12/04 02:40:58;;;;;;;9.40;4.53;;;;;;;;;;5114646;27;20048;-71
2023/12/04 02:43:26;;;;;;;10.48;5.75;;;;;;;;;;5116147;27;20130;-72
2023/12/04 02:45:53;;;;;;;8.05;5.18;;;;;;;;;;5117663;27;20126;-72
2023/12/04 02:48:19;;;;;;;10.85;5.43;;;;;;;;;;5120439;27;20043;-71
2023/12/04 02:50:46;;;;;;;9.93;5.25;;;;;;;;;;5113112;28;20047;-71
2023/12/04 02:53:12;;;;;;;13.23;5.65;;;;;;;;;;5115852;27;20049;-71
2023/12/04 02:55:39;;;;;;;9.15;5.40;;;;;;;;;;5120286;27;20066;-71
2023/12/04 02:58:05;;;;;;;12.73;6.15;;;;;;;;;;5113063;28;20369;-71
2023/12/04 03:00:33;;;;;;;9.68;4.68;;;;;;;;;;5112689;28;20414;-71
2023/12/04 03:03:00;;;;;;;9.75;4.93;;;;;;;;;;5113273;28;20217;-71
2023/12/04 03:05:26;;;;;;;9.13;4.97;;;;;;;;;;5114508;27;20046;-71
2023/12/04 03:07:53;;;;;;;10.32;4.22;;;;;;;;;;5112697;28;20410;-71
2023/12/04 03:10:20;;;;;;;10.02;4.68;;;;;;;;;;5115600;27;20556;-72
2023/12/04 03:12:46;;;;;;;11.05;5.15;;;;;;;;;;5112937;28;20598;-72
2023/12/04 03:15:13;;;;;;;11.32;5.45;;;;;;;;;;5112528;28;20040;-72
2023/12/04 03:17:41;;;;;;;10.27;5.20;;;;;;;;;;5113112;28;20044;-72
2023/12/04 03:20:08;;;;;;;9.02;5.40;;;;;;;;;;5112381;28;20050;-72
2023/12/04 03:22:35;;;;;;;9.13;5.00;;;;;;;;;;5117000;27;20415;-71
2023/12/04 03:25:02;;;;;;;11.30;5.63;;;;;;;;;;5115328;27;20422;-71
2023/12/04 03:27:28;;;;;;;8.90;5.20;;;;;;;;;;5112691;28;20043;-72
2023/12/04 03:29:55;;;;;;;12.23;5.95;;;;;;;;;;5114719;27;20043;-71
2023/12/04 03:32:21;;;;;;;10.98;5.47;;;;;;;;;;5112543;28;20058;-71
2023/12/04 03:34:49;;;;;;;13.32;6.18;;;;;;;;;;5115148;27;20043;-72
2023/12/04 03:37:16;;;;;;;10.60;5.40;;;;;;;;;;5112157;27;20039;-72
2023/12/04 03:39:42;;;;;;;12.05;5.70;;;;;;;;;;5112062;28;20078;-71
2023/12/04 03:42:09;;;;;;;8.75;4.78;;;;;;;;;;5112340;28;20063;-72
2023/12/04 03:44:36;;;;;;;11.05;5.78;;;;;;;;;;5114821;27;20046;-71
2023/12/04 03:47:02;;;;;;;11.68;5.25;;;;;;;;;;5117527;27;20061;-72
2023/12/04 03:49:29;;;;;;;10.18;5.00;;;;;;;;;;5114754;27;20048;-72
2023/12/04 03:51:57;;;;;;;8.95;4.57;;;;;;;;;;5116387;27;20051;-71
2023/12/04 03:54:23;;;;;;;8.77;4.97;;;;;;;;;;5119409;27;20043;-72
2023/12/04 03:56:50;;;;;;;7.25;3.95;;;;;;;;;;5117846;27;20048;-71
2023/12/04 03:59:16;;;;;;;7.22;4.15;;;;;;;;;;5116311;27;20051;-71
2023/12/04 04:01:43;;;;;;;6.75;3.67;;;;;;;;;;5120329;27;20049;-72
2023/12/04 04:04:09;;;;;;;8.80;4.05;;;;;;;;;;5114553;27;20131;-71
2023/12/04 04:06:38;;;;;;;8.70;4.43;;;;;;;;;;5111878;28;20043;-71
2023/12/04 04:09:06;;;;;;;7.60;4.00;;;;;;;;;;5117132;27;20092;-71
2023/12/04 04:11:32;;;;;;;8.93;4.70;;;;;;;;;;5111018;28;20057;-71
2023/12/04 04:13:59;;;;;;;8.63;5.28;;;;;;;;;;5111738;28;20048;-72
2023/12/04 04:16:25;;;;;;;10.48;4.93;;;;;;;;;;5107406;28;20049;-72
2023/12/04 04:18:52;;;;;;;11.68;4.85;;;;;;;;;;5111323;28;20054;-71
2023/12/04 04:21:18;;;;;;;11.13;4.50;;;;;;;;;;5111841;28;20535;-72
2023/12/04 04:23:45;;;;;;;8.02;4.30;;;;;;;;;;5111801;28;20547;-72
2023/12/04 04:26:13;;;;;;;7.45;4.20;;;;;;;;;;5117328;27;20054;-71
2023/12/04 04:28:39;;;;;;;8.75;4.47;;;;;;;;;;5114500;27;20106;-72
2023/12/04 04:31:06;;;;;;;9.65;4.93;;;;;;;;;;5114139;28;20492;-72
2023/12/04 04:33:33;;;;;;;10.45;6.00;;;;;;;;;;5116035;28;20169;-71
2023/12/04 04:36:00;;;;;;;11.63;5.93;;;;;;;;;;5117618;28;20046;-72
2023/12/04 04:38:26;;;;;;;9.27;5.43;;;;;;;;;;5106994;28;20039;-71
2023/12/04 04:40:53;;;;;;;8.93;4.97;;;;;;;;;;5111343;28;20423;-71
2023/12/04 04:43:21;;;;;;;10.55;5.43;;;;;;;;;;5111570;28;20411;-72
2023/12/04 04:45:48;;;;;;;9.45;4.80;;;;;;;;;;5111310;28;20043;-71
2023/12/04 04:48:14;;;;;;;13.82;6.55;;;;;;;;;;5111227;28;20054;-72
2023/12/04 04:50:41;;;;;;;12.75;6.25;;;;;;;;;;5114014;28;20051;-71
2023/12/04 04:53:07;;;;;;;12.95;6.45;;;;;;;;;;5108773;28;20070;-72
2023/12/04 04:55:34;;;;;;;15.80;7.15;;;;;;;;;;5111971;28;20468;-71
2023/12/04 04:58:00;;;;;;;13.38;6.78;;;;;;;;;;5111306;28;20043;-72
2023/12/04 05:00:28;;;;;;;14.07;7.57;;;;;;;;;;5114908;28;20039;-71
2023/12/04 05:02:55;;;;;;;13.65;7.30;;;;;;;;;;5111343;28;20058;-72
2023/12/04 05:05:22;;;;;;;14.65;6.65;;;;;;;;;;5111417;28;20142;-72
2023/12/04 05:07:48;;;;;;;15.57;7.47;;;;;;;;;;5111377;28;20132;-71
2023/12/04 05:10:15;;;;;;;13.48;6.65;;;;;;;;;;5112912;28;20046;-71
2023/12/04 05:12:41;;;;;;;11.75;6.57;;;;;;;;;;5113587;28;20059;-72
2023/12/04 05:15:08;;;;;;;12.60;6.45;;;;;;;;;;5111205;28;20047;-71
2023/12/04 05:17:36;;;;;;;12.10;6.18;;;;;;;;;;5111211;28;20167;-71
2023/12/04 05:20:03;;;;;;;11.02;6.07;;;;;;;;;;5113163;28;20096;-70
2023/12/04 05:22:29;;;;;;;11.40;5.70;;;;;;;;;;5116748;27;20043;-71
2023/12/04 05:24:56;;;;;;;10.90;6.03;;;;;;;;;;5114799;27;20138;-71
2023/12/04 05:27:23;;;;;;;11.07;6.57;;;;;;;;;;5114617;28;20101;-71
2023/12/04 05:29:50;;;;;;;10.52;5.93;;;;;;;;;;5114159;28;20044;-71
2023/12/04 05:32:16;;;;;;;11.68;5.40;;;;;;;;;;5114834;28;20129;-71
2023/12/04 05:34:44;;;;;;;12.07;5.80;;;;;;;;;;5117507;27;20039;-71
2023/12/04 05:37:11;;;;;;;13.13;6.00;;;;;;;;;;5115954;27;20040;-71
2023/12/04 05:39:37;;;;;;;10.63;5.57;;;;;;;;;;5114392;28;20452;-71
2023/12/04 05:42:04;;;;;;;12.10;5.85;;;;;;;;;;5121822;27;20567;-71
2023/12/04 05:44:31;;;;;;;9.82;5.82;;;;;;;;;;5118233;27;20047;-71
2023/12/04 05:46:58;;;;;;;9.60;5.22;;;;;;;;;;5118935;27;20449;-71
2023/12/04 05:49:24;;;;;;;10.80;5.65;;;;;;;;;;5117877;27;20043;-72
2023/12/04 05:51:53;;;;;;;9.55;5.75;;;;;;;;;;5115711;27;20134;-71
2023/12/04 05:54:19;;;;;;;10.82;5.60;;;;;;;;;;5121095;27;20487;-71
2023/12/04 05:56:46;;;;;;;10.32;5.50;;;;;;;;;;5113990;28;20048;-70
2023/12/04 05:59:12;;;;;;;10.43;6.07;;;;;;;;;;5118563;27;20047;-71
2023/12/04 06:01:39;;;;;;;13.20;6.28;;;;;;;;;;5114182;28;20043;-71
2023/12/04 06:04:05;;;;;;;13.00;6.45;;;;;;;;;;5114368;28;20051;-71
2023/12/04 06:06:32;;;;;;;9.98;5.80;;;;;;;;;;5114071;28;20048;-71
2023/12/04 06:09:00;;;;;;;11.27;5.72;;;;;;;;;;5115263;27;20048;-72
2023/12/04 06:11:26;;;;;;;9.07;5.43;;;;;;;;;;5118254;27;20054;-71
2023/12/04 06:13:53;;;;;;;13.68;6.10;;;;;;;;;;5121294;27;20044;-72
2023/12/04 06:16:19;;;;;;;10.95;6.53;;;;;;;;;;5114040;28;20154;-71
2023/12/04 06:18:46;;;;;;;12.68;6.38;;;;;;;;;;5116319;27;20040;-71
2023/12/04 06:21:12;;;;;;;11.07;6.45;;;;;;;;;;5113695;28;20533;-72
2023/12/04 06:23:39;;;;;;;11.70;5.95;;;;;;;;;;5113804;28;20054;-72
2023/12/04 06:26:09;;;;;;;11.00;6.18;;;;;;;;;;5120655;27;20043;-72
2023/12/04 06:28:36;;;;;;;14.30;7.07;;;;;;;;;;5113653;28;20495;-71
2023/12/04 06:31:03;;;;;;;13.40;6.40;;;;;;;;;;5117835;27;20065;-72
2023/12/04 06:33:30;;;;;;;13.35;6.22;;;;;;;;;;5115837;27;20047;-72
2023/12/04 06:35:57;;;;;;;12.43;6.70;;;;;;;;;;5113531;28;20043;-71
2023/12/04 06:38:26;;;;;;;12.35;5.97;;;;;;;;;;5112880;28;20048;-70
2023/12/04 06:40:53;;;;;;;12.25;6.10;;;;;;;;;;5113391;28;20073;-71
2023/12/04 06:43:22;;;;;;;13.82;6.55;;;;;;;;;;5125120;27;20047;-72
2023/12/04 06:45:49;;;;;;;16.40;6.80;;;;;;;;;;5122509;27;20054;-71
2023/12/04 06:48:17;;;;;;;13.32;6.88;;;;;;;;;;5118426;27;20488;-72
2023/12/04 06:50:43;;;;;;;11.80;6.22;;;;;;;;;;5114937;27;20048;-72
2023/12/04 06:53:10;;;;;;;12.85;6.38;;;;;;;;;;5120873;27;20043;-71
2023/12/04 06:55:36;;;;;;;12.25;6.65;;;;;;;;;;5116474;27;20126;-71
2023/12/04 06:58:03;;;;;;;13.88;7.50;;;;;;;;;;5112883;28;20043;-71
2023/12/04 07:00:31;;;;;;;12.35;7.05;;;;;;;;;;5112758;28;20050;-71
2023/12/04 07:02:57;;;;;;;12.88;6.60;;;;;;;;;;5118247;27;20043;-72
2023/12/04 07:05:24;;;;;;;13.27;6.03;;;;;;;;;;5112740;28;20509;-72
2023/12/04 07:07:51;;;;;;;14.75;7.38;;;;;;;;;;5112424;28;20047;-71
2023/12/04 07:10:17;;;;;;;15.32;6.90;;;;;;;;;;5112228;28;20135;-72
2023/12/04 07:12:46;;;;;;;12.93;7.22;;;;;;;;;;5120259;27;20050;-72
2023/12/04 07:15:12;;;;;;;13.55;6.60;;;;;;;;;;5114749;27;20138;-71
2023/12/04 07:17:40;;;;;;;14.55;7.55;;;;;;;;;;5112481;28;20043;-72
2023/12/04 07:20:08;;;;;;;11.98;6.65;;;;;;;;;;5112016;28;20046;-71
2023/12/04 07:22:34;;;;;;;13.02;6.90;;;;;;;;;;5112585;28;20062;-71
2023/12/04 07:25:01;;;;;;;12.82;6.90;;;;;;;;;;5115442;27;20483;-72
2023/12/04 07:27:28;;;;;;;15.00;7.18;;;;;;;;;;5119800;27;20039;-72
2023/12/04 07:29:54;;;;;;;13.40;7.03;;;;;;;;;;5119097;27;20049;-71
2023/12/04 07:32:21;;;;;;;13.18;6.93;;;;;;;;;;5115213;27;20043;-72
2023/12/04 07:34:48;;;;;;;14.57;6.95;;;;;;;;;;5112031;28;20421;-72
2023/12/04 07:37:15;;;;;;;14.23;6.47;;;;;;;;;;5122875;27;20039;-71
2023/12/04 07:39:43;;;;;;;13.93;7.22;;;;;;;;;;5115944;27;20551;-71
2023/12/04 07:42:09;;;;;;;13.70;6.82;;;;;;;;;;5112524;27;20458;-71
2023/12/04 07:44:36;;;;;;;13.07;7.20;;;;;;;;;;5116341;27;20075;-72
2023/12/04 07:47:03;;;;;;;13.63;7.35;;;;;;;;;;5123759;27;20074;-71
2023/12/04 07:49:29;;;;;;;13.73;7.10;;;;;;;;;;5122368;27;20495;-71
2023/12/04 07:51:57;;;;;;;13.82;6.88;;;;;;;;;;5115235;27;20538;-71
2023/12/04 07:54:25;;;;;;;12.52;6.47;;;;;;;;;;5116653;27;20472;-72
2023/12/04 07:56:52;;;;;;;11.75;6.53;;;;;;;;;;5114279;27;20048;-72
2023/12/04 07:59:19;;;;;;;14.82;7.32;;;;;;;;;;5114326;27;20130;-71
2023/12/04 08:01:46;;;;;;;13.77;7.72;;;;;;;;;;5113181;27;20043;-71
2023/12/04 08:04:12;;;;;;;16.23;7.90;;;;;;;;;;5121945;27;20138;-72
2023/12/04 08:06:39;;;;;;;11.50;6.57;;;;;;;;;;5114434;27;20044;-71
2023/12/04 08:09:09;;;;;;;14.43;6.95;;;;;;;;;;5116248;27;20479;-71
2023/12/04 08:11:36;;;;;;;13.98;6.97;;;;;;;;;;5111787;28;20047;-71
2023/12/04 08:14:03;;;;;;;12.65;6.90;;;;;;;;;;5111568;28;20052;-72
2023/12/04 08:16:30;;;;;;;12.18;6.82;;;;;;;;;;5118670;27;20040;-72
2023/12/04 08:18:56;;;;;;;11.45;6.43;;;;;;;;;;5111328;28;20052;-72
2023/12/04 08:21:23;;;;;;;13.00;6.55;;;;;;;;;;5111826;28;20434;-71
2023/12/04 08:23:49;;;;;;;14.23;7.28;;;;;;;;;;5114882;27;20498;-72
2023/12/04 08:26:24;;;;;;;12.82;6.85;;;;;;;;;;5111570;28;20050;-71
2023/12/04 08:28:50;;;;;;;12.55;6.65;;;;;;;;;;5115422;27;20517;-72
2023/12/04 08:31:17;;;;;;;12.07;6.95;;;;;;;;;;5114465;28;20043;-72
2023/12/04 08:33:44;;;;;;;10.63;6.53;;;;;;;;;;5111198;28;20054;-71
2023/12/04 08:36:12;;;;;;;13.38;6.60;;;;;;;;;;5118563;28;20039;-71
2023/12/04 08:38:39;;;;;;;12.95;6.63;;;;;;;;;;5113387;28;20051;-72
2023/12/04 08:41:06;;;;;;;13.18;6.75;;;;;;;;;;5115897;28;20040;-72
2023/12/04 08:43:33;;;;;;;12.93;6.88;;;;;;;;;;5118022;28;20066;-73
2023/12/04 08:46:00;;;;;;;14.18;6.95;;;;;;;;;;5109705;28;20047;-71
2023/12/04 08:48:27;;;;;;;11.82;6.03;;;;;;;;;;5111940;28;20047;-71
2023/12/04 08:50:53;;;;;;;14.55;6.68;;;;;;;;;;5111799;28;20058;-72
2023/12/04 08:53:20;;;;;;;14.48;6.65;;;;;;;;;;5111113;28;20051;-72
2023/12/04 08:55:47;;;;;;;12.52;6.88;;;;;;;;;;5110910;28;20040;-71
2023/12/04 08:58:13;;;;;;;14.18;7.28;;;;;;;;;;5113878;28;20368;-72
2023/12/04 09:00:42;;;;;;;10.85;6.38;;;;;;;;;;5122270;27;20049;-72
2023/12/04 09:03:10;;;;;;;11.07;6.30;;;;;;;;;;5115519;28;20415;-71
2023/12/04 09:05:36;;;;;;;13.50;7.53;;;;;;;;;;5118107;27;20580;-72
2023/12/04 09:08:03;;;;;;;11.23;6.57;;;;;;;;;;5117711;27;20059;-71
2023/12/04 09:10:30;;;;;;;13.35;7.22;;;;;;;;;;5113946;28;20044;-71
2023/12/04 09:12:56;;;;;;;13.40;6.50;;;;;;;;;;5122335;27;20073;-71
2023/12/04 09:15:23;;;;;;;12.27;6.88;;;;;;;;;;5119295;27;20139;-72
2023/12/04 09:17:51;;;;;;;9.30;5.78;;;;;;;;;;5114779;27;20051;-71
2023/12/04 09:20:17;;;;;;;11.75;6.07;;;;;;;;;;5114680;28;20253;-71
2023/12/04 09:22:44;;;;;;;13.15;6.88;;;;;;;;;;5114570;28;20062;-72
2023/12/04 09:25:11;;;;;;;12.07;6.60;;;;;;;;;;5114434;28;20435;-71
2023/12/04 09:27:37;;;;;;;10.73;6.03;;;;;;;;;;5122097;27;20047;-72
2023/12/04 09:30:05;;;;;;;11.07;6.15;;;;;;;;;;5124297;27;20047;-72
2023/12/04 09:32:32;;;;;;;13.40;6.70;;;;;;;;;;5114640;28;20488;-72
2023/12/04 09:35:00;;;;;;;11.07;6.10;;;;;;;;;;5117437;27;20476;-71
2023/12/04 09:37:26;;;;;;;10.68;5.80;;;;;;;;;;5116928;27;20046;-71
2023/12/04 09:39:53;;;;;;;11.75;6.82;;;;;;;;;;5109668;27;20587;-71
2023/12/04 09:42:20;;;;;;;12.43;6.72;;;;;;;;;;5119989;27;20048;-71
2023/12/04 09:44:49;;;;;;;10.55;6.35;;;;;;;;;;5111128;28;20040;-71
2023/12/04 09:47:18;;;;;;;10.70;6.30;;;;;;;;;;5118616;27;20069;-72
2023/12/04 09:49:45;;;;;;;12.43;7.03;;;;;;;;;;5111843;28;20058;-72
2023/12/04 09:52:13;;;;;;;10.50;6.88;;;;;;;;;;5112743;28;20143;-71
2023/12/04 09:54:41;;;;;;;14.68;7.00;;;;;;;;;;5113795;28;20047;-73
2023/12/04 09:57:07;;;;;;;13.57;6.70;;;;;;;;;;5117668;27;20040;-71
2023/12/04 09:59:35;;;;;;;11.80;6.53;;;;;;;;;;5114088;28;20472;-71
2023/12/04 10:02:02;;;;;;;13.48;7.25;;;;;;;;;;5114428;27;20051;-72
2023/12/04 10:04:29;;;;;;;12.30;6.65;;;;;;;;;;5113574;28;20054;-71
2023/12/04 10:06:56;;;;;;;13.13;6.82;;;;;;;;;;5119347;27;20087;-72
2023/12/04 10:09:24;;;;;;;16.73;6.63;;;;;;;;;;5112266;27;20055;-71
2023/12/04 10:11:51;;;;;;;12.38;6.93;;;;;;;;;;5115441;27;20044;-71
2023/12/04 10:14:19;;;;;;;12.13;6.07;;;;;;;;;;5118728;27;20411;-72
2023/12/04 10:16:47;;;;;;;10.25;6.68;;;;;;;;;;5113458;27;20400;-71
2023/12/04 10:19:18;;;;;;;9.27;6.18;;;;;;;;;;5117164;27;20051;-72
2023/12/04 10:21:46;;;;;;;11.13;5.63;;;;;;;;;;5118115;27;20047;-72
2023/12/04 10:24:13;;;;;;;9.88;5.60;;;;;;;;;;5116772;27;20050;-71
2023/12/04 10:26:52;;;;;;;10.52;5.57;;;;;;;;;;5113101;28;20431;-71
2023/12/04 10:29:18;;;;;;;12.05;6.72;;;;;;;;;;5118576;27;20055;-71
2023/12/04 10:31:45;;;;;;;9.90;5.93;;;;;;;;;;5115640;27;20488;-72
2023/12/04 10:34:11;;;;;;;12.02;6.53;;;;;;;;;;5118635;27;20054;-71
2023/12/04 10:36:38;;;;;;;10.00;6.18;;;;;;;;;;5119348;27;20050;-71
2023/12/04 10:39:05;;;;;;;8.77;5.63;;;;;;;;;;5116381;27;20046;-71
2023/12/04 10:41:32;;;;;;;12.52;6.88;;;;;;;;;;5111039;27;20495;-71
2023/12/04 10:44:00;;;;;;;10.15;5.63;;;;;;;;;;5115951;27;20047;-71
2023/12/04 10:46:27;;;;;;;10.55;5.97;;;;;;;;;;5114806;27;20050;-72
2023/12/04 10:48:54;;;;;;;11.02;6.32;;;;;;;;;;5112317;28;20518;-72
2023/12/04 10:51:22;;;;;;;11.27;5.95;;;;;;;;;;5117107;27;20043;-72
2023/12/04 10:53:49;;;;;;;12.35;6.60;;;;;;;;;;5112329;28;20504;-71
2023/12/04 10:56:20;;;;;;;9.98;6.18;;;;;;;;;;5111998;28;20051;-71
2023/12/04 10:58:51;;;;;;;10.93;5.80;;;;;;;;;;5124027;27;20422;-71
2023/12/04 11:01:20;;;;;;;13.52;7.15;;;;;;;;;;5112903;27;20131;-72
2023/12/04 11:03:51;;;;;;;10.18;6.07;;;;;;;;;;5112398;27;20050;-71
2023/12/04 11:06:19;;;;;;;13.43;7.00;;;;;;;;;;5114726;27;20422;-71
2023/12/04 11:08:50;;;;;;;10.63;6.25;;;;;;;;;;5111768;28;20054;-71
2023/12/04 11:11:24;;;;;;;12.60;6.78;;;;;;;;;;5118005;27;20047;-71
2023/12/04 11:13:54;;;;;;;12.88;6.30;;;;;;;;;;5111948;28;20138;-71
2023/12/04 11:16:28;;;;;;;10.35;6.13;;;;;;;;;;5111762;28;20043;-72
2023/12/04 11:19:02;;;;;;;10.13;5.93;;;;;;;;;;5119098;27;20066;-72
2023/12/04 11:21:30;;;;;;;11.50;5.70;;;;;;;;;;5107617;28;20047;-71
2023/12/04 11:23:58;;;;;;;14.02;7.10;;;;;;;;;;5116835;27;20528;-72
2023/12/04 11:26:25;;;;;;;13.23;7.57;;;;;;;;;;5116271;27;20051;-71
2023/12/04 11:28:52;;;;;;;13.68;7.22;;;;;;;;;;5111572;28;20054;-72
2023/12/04 11:31:19;;;;;;;12.70;7.38;;;;;;;;;;5114664;27;20053;-72
2023/12/04 11:33:47;;;;;;;16.38;8.38;;;;;;;;;;5111912;28;20058;-71
2023/12/04 11:36:14;;;;;;;14.35;7.07;;;;;;;;;;5119133;27;20048;-72
2023/12/04 11:38:45;;;;;;;15.10;7.78;;;;;;;;;;5118738;27;20044;-72
2023/12/04 11:41:19;;;;;;;13.98;7.40;;;;;;;;;;5109424;28;20075;-72
2023/12/04 11:43:46;;;;;;;15.05;7.10;;;;;;;;;;5118163;27;20054;-71
2023/12/04 11:46:14;;;;;;;14.43;7.10;;;;;;;;;;5112047;28;20051;-72
2023/12/04 11:48:41;;;;;;;12.05;6.82;;;;;;;;;;5113951;27;20134;-71
2023/12/04 11:51:09;;;;;;;13.95;6.68;;;;;;;;;;5113713;27;20043;-71
2023/12/04 11:53:39;;;;;;;12.75;7.15;;;;;;;;;;5115394;27;20055;-72
2023/12/04 11:56:10;;;;;;;13.93;7.65;;;;;;;;;;5110838;28;20279;-71
2023/12/04 11:58:43;;;;;;;12.90;7.20;;;;;;;;;;5111157;28;20050;-71
2023/12/04 12:01:10;;;;;;;13.90;6.82;;;;;;;;;;5112901;28;20054;-72
2023/12/04 12:03:37;;;;;;;12.20;6.53;;;;;;;;;;5115798;27;20046;-71
2023/12/04 12:06:05;;;;;;;9.93;6.03;;;;;;;;;;5111893;28;20860;-71
2023/12/04 12:08:32;;;;;;;13.95;7.05;;;;;;;;;;5116408;27;20052;-71
2023/12/04 12:10:59;;;;;;;13.88;6.63;;;;;;;;;;5117131;27;20050;-71
2023/12/04 12:13:26;;;;;;;11.30;6.35;;;;;;;;;;5119016;27;20047;-71
2023/12/04 12:15:53;;;;;;;12.63;6.70;;;;;;;;;;5116051;27;20043;-72
2023/12/04 12:18:20;;;;;;;10.63;6.65;;;;;;;;;;5116926;27;20539;-71
2023/12/04 12:20:46;;;;;;;8.68;5.60;;;;;;;;;;5113293;27;20047;-72
2023/12/04 12:23:13;;;;;;;11.95;6.38;;;;;;;;;;5114483;27;20039;-71
2023/12/04 12:25:40;;;;;;;10.50;5.80;;;;;;;;;;5111817;28;20048;-72
2023/12/04 12:28:07;;;;;;;10.00;6.07;;;;;;;;;;5120431;27;20040;-71
2023/12/04 12:30:34;;;;;;;12.38;6.97;;;;;;;;;;5110915;28;20048;-72
2023/12/04 12:33:00;;;;;;;10.85;6.43;;;;;;;;;;5110139;28;20458;-72
2023/12/04 12:35:27;;;;;;;9.80;5.45;;;;;;;;;;5115255;28;20126;-71
2023/12/04 12:37:54;;;;;;;8.95;5.28;;;;;;;;;;5113238;28;20044;-71
2023/12/04 12:40:22;;;;;;;11.40;6.78;;;;;;;;;;5115082;28;20039;-72
2023/12/04 12:42:51;;;;;;;11.18;6.57;;;;;;;;;;5115746;28;20483;-72
2023/12/04 12:45:18;;;;;;;13.07;8.05;;;;;;;;;;5110455;28;20566;-72
2023/12/04 12:47:44;;;;;;;6.88;5.28;;;;;;;;;;5110010;28;20055;-71
2023/12/04 12:50:13;;;;;;;9.25;5.22;;;;;;;;;;5112762;28;20127;-72
2023/12/04 12:52:39;;;;;;;8.82;5.40;;;;;;;;;;5118309;28;20055;-72
2023/12/04 12:55:06;;;;;;;9.63;5.32;;;;;;;;;;5110648;28;20327;-71
2023/12/04 12:57:33;;;;;;;11.20;5.65;;;;;;;;;;5110399;28;20051;-72
2023/12/04 13:00:05;;;;;;;8.80;5.50;;;;;;;;;;5116637;28;20082;-72
2023/12/04 13:02:35;;;;;;;9.43;5.43;;;;;;;;;;5106944;28;20070;-72
2023/12/04 13:05:04;;;;;;;8.48;5.30;;;;;;;;;;5109301;28;20044;-72
2023/12/04 13:07:31;;;;;;;12.30;6.28;;;;;;;;;;5116108;28;20047;-72
2023/12/04 13:09:57;;;;;;;10.90;5.22;;;;;;;;;;5111361;28;20046;-72
2023/12/04 13:12:24;;;;;;;10.43;5.88;;;;;;;;;;5111535;28;20044;-72
2023/12/04 13:14:50;;;;;;;12.35;6.72;;;;;;;;;;5110782;28;20052;-71
2023/12/04 13:17:18;;;;;;;10.13;6.40;;;;;;;;;;5111791;28;20415;-72
2023/12/04 13:19:45;;;;;;;10.35;5.72;;;;;;;;;;5111269;28;20510;-72
2023/12/04 13:22:11;;;;;;;8.20;5.00;;;;;;;;;;5112549;28;20047;-72
2023/12/04 13:24:38;;;;;;;9.40;4.90;;;;;;;;;;5112531;28;20044;-72
2023/12/04 13:27:04;;;;;;;9.15;5.13;;;;;;;;;;5115971;28;20057;-71
2023/12/04 13:29:31;;;;;;;9.23;4.15;;;;;;;;;;5112654;28;20048;-72
2023/12/04 13:31:59;;;;;;;9.70;5.47;;;;;;;;;;5116091;28;20486;-72
2023/12/04 13:34:28;;;;;;;8.25;5.63;;;;;;;;;;5120611;28;20150;-72
2023/12/04 13:36:54;;;;;;;10.15;4.72;;;;;;;;;;5118507;28;20418;-72
2023/12/04 13:39:27;;;;;;;11.63;5.38;;;;;;;;;;5111649;28;20046;-71
2023/12/04 13:44:37;;;;;;;6.32;4.18;;;;;;;;;;5115101;28;20055;-71
2023/12/04 13:47:05;;;;;;;7.70;5.28;;;;;;;;;;5118793;27;20039;-71
2023/12/04 13:49:33;;;;;;;8.05;6.38;;;;;;;;;;5117667;27;20050;-72
2023/12/04 13:51:59;;;;;;;9.10;5.72;;;;;;;;;;5117410;27;20515;-72
2023/12/04 13:54:42;;;;;;;9.65;5.70;;;;;;;;;;5119696;27;20065;-71
2023/12/04 13:57:11;;;;;;;8.87;5.27;;;;;;;;;;5112024;27;20586;-71
2023/12/04 13:59:39;;;;;;;8.65;5.07;;;;;;;;;;5120094;27;20097;-71
2023/12/04 14:02:11;;;;;;;6.80;4.15;;;;;;;;;;5121258;27;20414;-71
2023/12/04 14:04:39;;;;;;;9.40;4.50;;;;;;;;;;5113769;28;20464;-71
2023/12/04 14:07:08;;;;;;;7.38;4.60;;;;;;;;;;5116931;27;20047;-71
2023/12/04 14:09:34;;;;;;;10.15;4.82;;;;;;;;;;5111832;27;20195;-71
2023/12/04 14:12:01;;;;;;;7.55;4.85;;;;;;;;;;5117180;27;20054;-71
2023/12/04 14:14:28;;;;;;;11.38;6.88;;;;;;;;;;5114190;28;20047;-71
2023/12/04 14:16:54;;;;;;;7.82;5.40;;;;;;;;;;5114668;27;20043;-72
2023/12/04 14:19:21;;;;;;;10.43;6.22;;;;;;;;;;5113852;28;20059;-72
2023/12/04 14:21:49;;;;;;;10.02;6.05;;;;;;;;;;5114077;28;20418;-71
2023/12/04 14:24:15;;;;;;;6.50;4.40;;;;;;;;;;5117217;27;20082;-71
2023/12/04 14:26:42;;;;;;;8.48;5.00;;;;;;;;;;5113695;28;20118;-72
2023/12/04 14:29:09;;;;;;;6.68;5.20;;;;;;;;;;5115921;27;20122;-71
2023/12/04 14:31:35;;;;;;;9.43;4.97;;;;;;;;;;5120261;27;20049;-71
2023/12/04 14:34:03;;;;;;;7.75;4.22;;;;;;;;;;5113173;28;20048;-71
2023/12/04 14:36:30;;;;;;;6.40;3.95;;;;;;;;;;5113679;27;20078;-71